FEFF Airport Information

Runway Information
Runway 17 Length 8530 ft width 148 ft
Elevation 1208 ft Threshold 0 ft Heading 165
Runway 35 Length 8530 ft Width 148 ft
Elevation 1182 ft Threshold 0 ft Heading 345
Airport Frequencies
Type A/G Name RDO Frequency 655.9 MHZ
Type TWR Name TWR Frequency 119.7 MHZ
Airport Navaids
Type VOR-DME Name Bangui M Poko Frequency 117300 KHZ
Airport Weather Information & NOTAM
ADDS - METARS form results

(2313 UTC 22 September 2021)
Data provider http://aviationweather.gov/metar/data/
 
Forecast for: FEFF (BANGUI/M'POKO (M, CF)
Text: TAF FEFF 221700Z 2218/2324 VRB02KT 8000 TS SCT013 FEW040CB
Forecast period: 1800 UTC 22 September 2021 to 0100 UTC 23 September 2021
Forecast type: FROM: standard forecast or significant change
Winds: variable direction winds at 2 MPH (2 knots; 1.0 m/s)
Visibility: 5 miles (8 km)
Ceiling: at least 12,000 feet AGL
Clouds: scattered clouds at 1300 feet AGL
few clouds at 4000 feet AGL
Weather: TS  (thunderstorm)
Text: BECMG 2301/2303 NSW
Forecast period: 0100 UTC 23 September 2021 to 0000 UTC 24 September 2021
Forecast type: BECOMING: Conditions expected to become as follows by 0300 UTC 23 September 2021
Winds: variable direction winds at 2 MPH (2 knots; 1.0 m/s)
Visibility: 5 miles (8 km)
Ceiling: at least 12,000 feet AGL
Clouds: scattered clouds at 1300 feet AGL
few clouds at 4000 feet AGL
Weather: NSW  (no significant weather)